Aviation Digital Data Service (ADDS)

Output produced by TAFs form (2220 UTC 02 December 2016)
found at http://aviationweather.gov/adds/tafs/
 
KMAF 022124Z 0221/0318 08012KT P6SM -DZRA OVC004 
     TEMPO 0222/0302 5SM -DZRA BR OVC005 
     FM030800 06005KT 4SM -DZRA BR OVC005 
     FM031200 05006KT 2SM -DZRA BR OVC004